sensor_id;sensor_type;location;lat;lon;timestamp;P1;durP1;ratioP1;P2;durP2;ratioP2
54627;SDS011;40525;55.926;21.066;2023-09-18T00:01:02;7.70;;;3.10;;
54627;SDS011;40525;55.926;21.066;2023-09-18T00:03:29;4.40;;;2.60;;
54627;SDS011;40525;55.926;21.066;2023-09-18T00:05:56;3.90;;;2.30;;
54627;SDS011;40525;55.926;21.066;2023-09-18T00:08:23;3.70;;;2.40;;
54627;SDS011;40525;55.926;21.066;2023-09-18T00:10:51;3.20;;;2.20;;
54627;SDS011;40525;55.926;21.066;2023-09-18T00:13:20;4.50;;;2.70;;
54627;SDS011;40525;55.926;21.066;2023-09-18T00:15:48;4.30;;;2.20;;
54627;SDS011;40525;55.926;21.066;2023-09-18T00:18:16;6.70;;;2.50;;
54627;SDS011;40525;55.926;21.066;2023-09-18T00:20:44;4.00;;;2.00;;
54627;SDS011;40525;55.926;21.066;2023-09-18T00:23:15;3.90;;;2.60;;
54627;SDS011;40525;55.926;21.066;2023-09-18T00:25:42;4.70;;;2.70;;
54627;SDS011;40525;55.926;21.066;2023-09-18T00:28:10;2.80;;;2.20;;
54627;SDS011;40525;55.926;21.066;2023-09-18T00:30:39;7.00;;;2.40;;
54627;SDS011;40525;55.926;21.066;2023-09-18T00:33:09;6.60;;;2.20;;
54627;SDS011;40525;55.926;21.066;2023-09-18T00:35:36;5.00;;;2.20;;
54627;SDS011;40525;55.926;21.066;2023-09-18T00:38:04;5.40;;;2.60;;
54627;SDS011;40525;55.926;21.066;2023-09-18T00:40:34;5.60;;;2.90;;
54627;SDS011;40525;55.926;21.066;2023-09-18T00:43:02;6.60;;;3.90;;
54627;SDS011;40525;55.926;21.066;2023-09-18T00:45:29;8.90;;;3.60;;
54627;SDS011;40525;55.926;21.066;2023-09-18T00:47:56;11.10;;;5.70;;
54627;SDS011;40525;55.926;21.066;2023-09-18T00:50:24;9.00;;;3.40;;
54627;SDS011;40525;55.926;21.066;2023-09-18T00:52:51;6.00;;;4.20;;
54627;SDS011;40525;55.926;21.066;2023-09-18T00:55:18;7.90;;;3.30;;
54627;SDS011;40525;55.926;21.066;2023-09-18T00:57:46;13.30;;;6.70;;
54627;SDS011;40525;55.926;21.066;2023-09-18T01:00:14;9.10;;;5.60;;
54627;SDS011;40525;55.926;21.066;2023-09-18T01:02:44;5.00;;;3.70;;
54627;SDS011;40525;55.926;21.066;2023-09-18T01:05:12;4.20;;;2.70;;
54627;SDS011;40525;55.926;21.066;2023-09-18T01:07:40;5.40;;;2.30;;
54627;SDS011;40525;55.926;21.066;2023-09-18T01:10:07;6.40;;;2.40;;
54627;SDS011;40525;55.926;21.066;2023-09-18T01:15:17;5.60;;;2.60;;
54627;SDS011;40525;55.926;21.066;2023-09-18T01:17:49;5.00;;;3.10;;
54627;SDS011;40525;55.926;21.066;2023-09-18T01:20:17;4.80;;;2.00;;
54627;SDS011;40525;55.926;21.066;2023-09-18T01:22:44;5.00;;;2.70;;
54627;SDS011;40525;55.926;21.066;2023-09-18T01:25:11;6.60;;;2.20;;
54627;SDS011;40525;55.926;21.066;2023-09-18T01:27:38;4.00;;;1.80;;
54627;SDS011;40525;55.926;21.066;2023-09-18T01:30:05;2.80;;;1.70;;
54627;SDS011;40525;55.926;21.066;2023-09-18T01:32:33;3.50;;;1.90;;
54627;SDS011;40525;55.926;21.066;2023-09-18T01:35:02;4.80;;;2.10;;
54627;SDS011;40525;55.926;21.066;2023-09-18T01:37:35;5.20;;;2.00;;
54627;SDS011;40525;55.926;21.066;2023-09-18T01:40:04;6.50;;;2.30;;
54627;SDS011;40525;55.926;21.066;2023-09-18T01:42:35;3.30;;;1.40;;
54627;SDS011;40525;55.926;21.066;2023-09-18T01:45:03;3.30;;;1.80;;
54627;SDS011;40525;55.926;21.066;2023-09-18T01:47:32;2.30;;;1.40;;
54627;SDS011;40525;55.926;21.066;2023-09-18T01:50:02;3.10;;;1.60;;
54627;SDS011;40525;55.926;21.066;2023-09-18T01:52:32;3.60;;;1.70;;
54627;SDS011;40525;55.926;21.066;2023-09-18T01:55:01;3.20;;;1.40;;
54627;SDS011;40525;55.926;21.066;2023-09-18T01:57:32;2.80;;;1.20;;
54627;SDS011;40525;55.926;21.066;2023-09-18T01:59:59;3.50;;;1.50;;
54627;SDS011;40525;55.926;21.066;2023-09-18T02:02:37;2.80;;;1.30;;
54627;SDS011;40525;55.926;21.066;2023-09-18T02:05:22;1.80;;;1.30;;
54627;SDS011;40525;55.926;21.066;2023-09-18T02:07:51;2.10;;;1.20;;
54627;SDS011;40525;55.926;21.066;2023-09-18T02:10:19;3.00;;;1.30;;
54627;SDS011;40525;55.926;21.066;2023-09-18T02:12:46;2.50;;;1.10;;
54627;SDS011;40525;55.926;21.066;2023-09-18T02:15:13;2.30;;;1.30;;
54627;SDS011;40525;55.926;21.066;2023-09-18T02:17:40;3.20;;;1.10;;
54627;SDS011;40525;55.926;21.066;2023-09-18T02:20:07;2.60;;;1.10;;
54627;SDS011;40525;55.926;21.066;2023-09-18T02:22:38;1.60;;;1.10;;
54627;SDS011;40525;55.926;21.066;2023-09-18T02:25:08;1.70;;;1.00;;
54627;SDS011;40525;55.926;21.066;2023-09-18T02:27:35;2.10;;;1.00;;
54627;SDS011;40525;55.926;21.066;2023-09-18T02:30:02;2.70;;;1.10;;
54627;SDS011;40525;55.926;21.066;2023-09-18T02:32:31;2.40;;;0.90;;
54627;SDS011;40525;55.926;21.066;2023-09-18T02:34:59;2.70;;;0.90;;
54627;SDS011;40525;55.926;21.066;2023-09-18T02:37:26;2.30;;;1.20;;
54627;SDS011;40525;55.926;21.066;2023-09-18T02:39:55;3.00;;;1.00;;
54627;SDS011;40525;55.926;21.066;2023-09-18T02:42:23;1.70;;;0.80;;
54627;SDS011;40525;55.926;21.066;2023-09-18T02:44:51;3.90;;;1.00;;
54627;SDS011;40525;55.926;21.066;2023-09-18T02:47:18;2.70;;;1.00;;
54627;SDS011;40525;55.926;21.066;2023-09-18T02:49:45;3.20;;;1.00;;
54627;SDS011;40525;55.926;21.066;2023-09-18T02:52:12;3.70;;;1.40;;
54627;SDS011;40525;55.926;21.066;2023-09-18T02:54:39;2.20;;;0.90;;
54627;SDS011;40525;55.926;21.066;2023-09-18T02:57:06;2.40;;;0.80;;
54627;SDS011;40525;55.926;21.066;2023-09-18T02:59:33;2.30;;;1.10;;
54627;SDS011;40525;55.926;21.066;2023-09-18T03:02:00;1.10;;;0.70;;
54627;SDS011;40525;55.926;21.066;2023-09-18T03:04:29;1.80;;;0.70;;
54627;SDS011;40525;55.926;21.066;2023-09-18T03:06:57;3.00;;;1.30;;
54627;SDS011;40525;55.926;21.066;2023-09-18T03:09:25;2.50;;;0.80;;
54627;SDS011;40525;55.926;21.066;2023-09-18T03:11:52;1.50;;;0.70;;
54627;SDS011;40525;55.926;21.066;2023-09-18T03:14:19;3.40;;;0.90;;
54627;SDS011;40525;55.926;21.066;2023-09-18T03:16:46;1.20;;;0.70;;
54627;SDS011;40525;55.926;21.066;2023-09-18T03:19:13;1.60;;;0.60;;
54627;SDS011;40525;55.926;21.066;2023-09-18T03:21:41;4.00;;;1.00;;
54627;SDS011;40525;55.926;21.066;2023-09-18T03:24:08;1.90;;;0.90;;
54627;SDS011;40525;55.926;21.066;2023-09-18T03:26:35;1.90;;;0.70;;
54627;SDS011;40525;55.926;21.066;2023-09-18T03:29:02;2.90;;;0.70;;
54627;SDS011;40525;55.926;21.066;2023-09-18T03:31:29;1.00;;;0.60;;
54627;SDS011;40525;55.926;21.066;2023-09-18T03:33:57;2.80;;;0.90;;
54627;SDS011;40525;55.926;21.066;2023-09-18T03:36:25;2.40;;;0.80;;
54627;SDS011;40525;55.926;21.066;2023-09-18T03:38:52;1.70;;;0.60;;
54627;SDS011;40525;55.926;21.066;2023-09-18T03:41:19;1.60;;;0.60;;
54627;SDS011;40525;55.926;21.066;2023-09-18T03:43:46;2.50;;;0.70;;
54627;SDS011;40525;55.926;21.066;2023-09-18T03:46:13;3.10;;;1.40;;
54627;SDS011;40525;55.926;21.066;2023-09-18T03:48:43;0.90;;;0.50;;
54627;SDS011;40525;55.926;21.066;2023-09-18T03:51:11;2.40;;;1.40;;
54627;SDS011;40525;55.926;21.066;2023-09-18T03:53:43;2.20;;;0.60;;
54627;SDS011;40525;55.926;21.066;2023-09-18T03:56:11;1.20;;;0.60;;
54627;SDS011;40525;55.926;21.066;2023-09-18T03:58:39;1.30;;;0.50;;
54627;SDS011;40525;55.926;21.066;2023-09-18T04:01:07;1.00;;;0.50;;
54627;SDS011;40525;55.926;21.066;2023-09-18T04:03:34;1.30;;;0.60;;
54627;SDS011;40525;55.926;21.066;2023-09-18T04:06:02;2.20;;;0.60;;
54627;SDS011;40525;55.926;21.066;2023-09-18T04:08:30;1.60;;;0.70;;
54627;SDS011;40525;55.926;21.066;2023-09-18T04:10:59;1.30;;;0.60;;
54627;SDS011;40525;55.926;21.066;2023-09-18T04:13:26;0.90;;;0.70;;
54627;SDS011;40525;55.926;21.066;2023-09-18T04:15:53;1.40;;;0.60;;
54627;SDS011;40525;55.926;21.066;2023-09-18T04:18:24;2.60;;;0.70;;
54627;SDS011;40525;55.926;21.066;2023-09-18T04:20:52;3.20;;;0.60;;
54627;SDS011;40525;55.926;21.066;2023-09-18T04:25:50;1.10;;;0.40;;
54627;SDS011;40525;55.926;21.066;2023-09-18T04:28:19;1.20;;;0.40;;
54627;SDS011;40525;55.926;21.066;2023-09-18T04:30:47;2.20;;;0.50;;
54627;SDS011;40525;55.926;21.066;2023-09-18T04:33:15;0.80;;;0.60;;
54627;SDS011;40525;55.926;21.066;2023-09-18T04:35:44;1.80;;;0.50;;
54627;SDS011;40525;55.926;21.066;2023-09-18T04:38:12;0.90;;;0.40;;
54627;SDS011;40525;55.926;21.066;2023-09-18T04:40:44;5.30;;;0.70;;
54627;SDS011;40525;55.926;21.066;2023-09-18T04:43:13;1.20;;;0.40;;
54627;SDS011;40525;55.926;21.066;2023-09-18T04:45:40;0.70;;;0.60;;
54627;SDS011;40525;55.926;21.066;2023-09-18T04:48:10;0.70;;;0.60;;
54627;SDS011;40525;55.926;21.066;2023-09-18T04:50:37;1.70;;;0.60;;
54627;SDS011;40525;55.926;21.066;2023-09-18T04:53:04;3.70;;;0.80;;
54627;SDS011;40525;55.926;21.066;2023-09-18T04:55:31;0.90;;;0.60;;
54627;SDS011;40525;55.926;21.066;2023-09-18T04:57:59;2.70;;;0.90;;
54627;SDS011;40525;55.926;21.066;2023-09-18T05:00:26;3.30;;;0.60;;
54627;SDS011;40525;55.926;21.066;2023-09-18T05:02:57;4.10;;;0.80;;
54627;SDS011;40525;55.926;21.066;2023-09-18T05:05:30;1.30;;;0.70;;
54627;SDS011;40525;55.926;21.066;2023-09-18T05:07:57;2.10;;;0.70;;
54627;SDS011;40525;55.926;21.066;2023-09-18T05:10:24;2.70;;;0.80;;
54627;SDS011;40525;55.926;21.066;2023-09-18T05:12:52;2.30;;;0.70;;
54627;SDS011;40525;55.926;21.066;2023-09-18T05:15:25;8.10;;;0.80;;
54627;SDS011;40525;55.926;21.066;2023-09-18T05:17:56;2.10;;;0.70;;
54627;SDS011;40525;55.926;21.066;2023-09-18T05:20:25;8.80;;;2.90;;
54627;SDS011;40525;55.926;21.066;2023-09-18T05:22:55;3.00;;;1.10;;
54627;SDS011;40525;55.926;21.066;2023-09-18T05:25:23;2.30;;;0.70;;
54627;SDS011;40525;55.926;21.066;2023-09-18T05:28:00;1.70;;;0.90;;
54627;SDS011;40525;55.926;21.066;2023-09-18T05:30:34;1.50;;;0.80;;
54627;SDS011;40525;55.926;21.066;2023-09-18T05:33:05;1.90;;;0.70;;
54627;SDS011;40525;55.926;21.066;2023-09-18T05:35:34;1.20;;;0.90;;
54627;SDS011;40525;55.926;21.066;2023-09-18T05:38:05;2.10;;;0.70;;
54627;SDS011;40525;55.926;21.066;2023-09-18T05:40:32;1.60;;;0.90;;
54627;SDS011;40525;55.926;21.066;2023-09-18T05:42:59;2.50;;;0.90;;
54627;SDS011;40525;55.926;21.066;2023-09-18T05:45:26;2.30;;;1.00;;
54627;SDS011;40525;55.926;21.066;2023-09-18T05:47:53;2.80;;;1.00;;
54627;SDS011;40525;55.926;21.066;2023-09-18T05:50:21;1.70;;;1.00;;
54627;SDS011;40525;55.926;21.066;2023-09-18T05:52:48;2.40;;;1.00;;
54627;SDS011;40525;55.926;21.066;2023-09-18T05:55:18;2.40;;;1.20;;
54627;SDS011;40525;55.926;21.066;2023-09-18T05:57:45;1.10;;;1.00;;
54627;SDS011;40525;55.926;21.066;2023-09-18T06:00:12;1.80;;;1.00;;
54627;SDS011;40525;55.926;21.066;2023-09-18T06:02:40;3.20;;;1.30;;
54627;SDS011;40525;55.926;21.066;2023-09-18T06:05:08;4.70;;;1.60;;
54627;SDS011;40525;55.926;21.066;2023-09-18T06:07:38;3.10;;;1.20;;
54627;SDS011;40525;55.926;21.066;2023-09-18T06:10:06;3.80;;;1.50;;
54627;SDS011;40525;55.926;21.066;2023-09-18T06:12:34;1.20;;;1.00;;
54627;SDS011;40525;55.926;21.066;2023-09-18T06:15:01;2.80;;;1.20;;
54627;SDS011;40525;55.926;21.066;2023-09-18T06:17:28;1.90;;;1.20;;
54627;SDS011;40525;55.926;21.066;2023-09-18T06:19:55;3.50;;;1.40;;
54627;SDS011;40525;55.926;21.066;2023-09-18T06:22:22;4.10;;;1.60;;
54627;SDS011;40525;55.926;21.066;2023-09-18T06:24:49;2.40;;;1.40;;
54627;SDS011;40525;55.926;21.066;2023-09-18T06:27:16;3.40;;;1.70;;
54627;SDS011;40525;55.926;21.066;2023-09-18T06:29:45;2.20;;;1.40;;
54627;SDS011;40525;55.926;21.066;2023-09-18T06:32:12;2.00;;;1.40;;
54627;SDS011;40525;55.926;21.066;2023-09-18T06:34:39;2.70;;;1.30;;
54627;SDS011;40525;55.926;21.066;2023-09-18T06:37:10;2.10;;;1.30;;
54627;SDS011;40525;55.926;21.066;2023-09-18T06:39:39;4.70;;;1.80;;
54627;SDS011;40525;55.926;21.066;2023-09-18T06:42:06;3.50;;;1.80;;
54627;SDS011;40525;55.926;21.066;2023-09-18T06:44:33;3.20;;;1.80;;
54627;SDS011;40525;55.926;21.066;2023-09-18T06:47:01;2.40;;;1.60;;
54627;SDS011;40525;55.926;21.066;2023-09-18T06:49:28;3.60;;;1.40;;
54627;SDS011;40525;55.926;21.066;2023-09-18T06:51:55;3.50;;;1.60;;
54627;SDS011;40525;55.926;21.066;2023-09-18T06:54:22;2.60;;;1.50;;
54627;SDS011;40525;55.926;21.066;2023-09-18T06:56:49;4.60;;;2.30;;
54627;SDS011;40525;55.926;21.066;2023-09-18T06:59:16;2.90;;;1.60;;
54627;SDS011;40525;55.926;21.066;2023-09-18T07:01:43;4.40;;;1.80;;
54627;SDS011;40525;55.926;21.066;2023-09-18T07:04:11;5.70;;;1.60;;
54627;SDS011;40525;55.926;21.066;2023-09-18T07:06:38;3.10;;;1.60;;
54627;SDS011;40525;55.926;21.066;2023-09-18T07:09:06;2.40;;;1.80;;
54627;SDS011;40525;55.926;21.066;2023-09-18T07:11:34;6.10;;;3.30;;
54627;SDS011;40525;55.926;21.066;2023-09-18T07:14:01;3.60;;;1.70;;
54627;SDS011;40525;55.926;21.066;2023-09-18T07:16:33;4.00;;;1.70;;
54627;SDS011;40525;55.926;21.066;2023-09-18T07:19:03;4.00;;;1.90;;
54627;SDS011;40525;55.926;21.066;2023-09-18T07:21:32;3.80;;;1.90;;
54627;SDS011;40525;55.926;21.066;2023-09-18T07:24:01;3.80;;;1.60;;
54627;SDS011;40525;55.926;21.066;2023-09-18T07:26:28;2.10;;;1.60;;
54627;SDS011;40525;55.926;21.066;2023-09-18T07:28:56;2.60;;;1.90;;
54627;SDS011;40525;55.926;21.066;2023-09-18T07:31:27;3.70;;;2.00;;
54627;SDS011;40525;55.926;21.066;2023-09-18T07:33:55;4.30;;;2.10;;
54627;SDS011;40525;55.926;21.066;2023-09-18T07:36:22;6.80;;;2.10;;
54627;SDS011;40525;55.926;21.066;2023-09-18T07:38:49;4.30;;;2.70;;
54627;SDS011;40525;55.926;21.066;2023-09-18T07:41:17;2.70;;;1.80;;
54627;SDS011;40525;55.926;21.066;2023-09-18T07:43:46;3.00;;;2.20;;
54627;SDS011;40525;55.926;21.066;2023-09-18T07:46:13;6.40;;;2.00;;
54627;SDS011;40525;55.926;21.066;2023-09-18T07:48:40;5.30;;;2.00;;
54627;SDS011;40525;55.926;21.066;2023-09-18T07:51:10;6.70;;;2.30;;
54627;SDS011;40525;55.926;21.066;2023-09-18T07:53:42;3.40;;;2.30;;
54627;SDS011;40525;55.926;21.066;2023-09-18T07:56:10;4.20;;;2.30;;
54627;SDS011;40525;55.926;21.066;2023-09-18T07:58:37;3.90;;;2.10;;
54627;SDS011;40525;55.926;21.066;2023-09-18T08:01:05;3.60;;;2.20;;
54627;SDS011;40525;55.926;21.066;2023-09-18T08:03:33;4.80;;;2.40;;
54627;SDS011;40525;55.926;21.066;2023-09-18T08:06:00;3.40;;;2.00;;
54627;SDS011;40525;55.926;21.066;2023-09-18T08:08:27;3.60;;;2.40;;
54627;SDS011;40525;55.926;21.066;2023-09-18T08:10:57;3.70;;;2.40;;
54627;SDS011;40525;55.926;21.066;2023-09-18T08:13:28;4.00;;;2.40;;
54627;SDS011;40525;55.926;21.066;2023-09-18T08:15:56;2.90;;;2.10;;
54627;SDS011;40525;55.926;21.066;2023-09-18T08:18:23;3.50;;;2.30;;
54627;SDS011;40525;55.926;21.066;2023-09-18T08:20:53;3.50;;;2.30;;
54627;SDS011;40525;55.926;21.066;2023-09-18T08:23:25;5.20;;;2.50;;
54627;SDS011;40525;55.926;21.066;2023-09-18T08:25:52;4.00;;;2.50;;
54627;SDS011;40525;55.926;21.066;2023-09-18T08:28:22;3.80;;;2.70;;
54627;SDS011;40525;55.926;21.066;2023-09-18T08:30:50;5.10;;;2.80;;
54627;SDS011;40525;55.926;21.066;2023-09-18T08:33:17;3.40;;;2.60;;
54627;SDS011;40525;55.926;21.066;2023-09-18T08:35:44;3.80;;;2.50;;
54627;SDS011;40525;55.926;21.066;2023-09-18T08:38:16;4.00;;;2.50;;
54627;SDS011;40525;55.926;21.066;2023-09-18T08:40:44;4.30;;;2.60;;
54627;SDS011;40525;55.926;21.066;2023-09-18T08:43:12;4.30;;;2.90;;
54627;SDS011;40525;55.926;21.066;2023-09-18T08:45:54;4.50;;;3.10;;
54627;SDS011;40525;55.926;21.066;2023-09-18T08:48:28;4.30;;;3.10;;
54627;SDS011;40525;55.926;21.066;2023-09-18T08:51:05;4.30;;;2.70;;
54627;SDS011;40525;55.926;21.066;2023-09-18T08:53:33;5.60;;;3.20;;
54627;SDS011;40525;55.926;21.066;2023-09-18T08:56:02;4.60;;;3.00;;
54627;SDS011;40525;55.926;21.066;2023-09-18T08:58:31;2.80;;;2.20;;
54627;SDS011;40525;55.926;21.066;2023-09-18T09:01:02;4.50;;;2.70;;
54627;SDS011;40525;55.926;21.066;2023-09-18T09:03:30;6.50;;;2.80;;
54627;SDS011;40525;55.926;21.066;2023-09-18T09:05:57;4.20;;;2.90;;
54627;SDS011;40525;55.926;21.066;2023-09-18T09:08:28;3.70;;;2.80;;
54627;SDS011;40525;55.926;21.066;2023-09-18T09:10:56;7.50;;;4.20;;
54627;SDS011;40525;55.926;21.066;2023-09-18T09:13:25;5.00;;;2.80;;
54627;SDS011;40525;55.926;21.066;2023-09-18T09:16:11;4.50;;;2.80;;
54627;SDS011;40525;55.926;21.066;2023-09-18T09:18:49;5.50;;;3.10;;
54627;SDS011;40525;55.926;21.066;2023-09-18T09:21:18;4.20;;;2.80;;
54627;SDS011;40525;55.926;21.066;2023-09-18T09:23:47;6.80;;;3.10;;
54627;SDS011;40525;55.926;21.066;2023-09-18T09:26:20;3.70;;;2.90;;
54627;SDS011;40525;55.926;21.066;2023-09-18T09:28:49;6.50;;;2.90;;
54627;SDS011;40525;55.926;21.066;2023-09-18T09:31:30;4.90;;;3.30;;
54627;SDS011;40525;55.926;21.066;2023-09-18T09:33:57;4.00;;;2.80;;
54627;SDS011;40525;55.926;21.066;2023-09-18T09:36:26;4.20;;;3.20;;
54627;SDS011;40525;55.926;21.066;2023-09-18T09:38:56;5.20;;;3.40;;
54627;SDS011;40525;55.926;21.066;2023-09-18T09:41:27;5.10;;;3.10;;
54627;SDS011;40525;55.926;21.066;2023-09-18T09:43:55;5.00;;;3.60;;
54627;SDS011;40525;55.926;21.066;2023-09-18T09:46:23;4.50;;;3.30;;
54627;SDS011;40525;55.926;21.066;2023-09-18T09:51:26;5.40;;;3.20;;
54627;SDS011;40525;55.926;21.066;2023-09-18T09:53:53;6.70;;;3.50;;
54627;SDS011;40525;55.926;21.066;2023-09-18T09:56:21;5.50;;;3.40;;
54627;SDS011;40525;55.926;21.066;2023-09-18T09:59:01;4.40;;;3.30;;
54627;SDS011;40525;55.926;21.066;2023-09-18T10:01:30;6.80;;;3.70;;
54627;SDS011;40525;55.926;21.066;2023-09-18T10:03:58;5.70;;;3.40;;
54627;SDS011;40525;55.926;21.066;2023-09-18T10:06:27;6.10;;;3.20;;
54627;SDS011;40525;55.926;21.066;2023-09-18T10:08:57;4.50;;;3.10;;
54627;SDS011;40525;55.926;21.066;2023-09-18T10:11:25;6.50;;;3.00;;
54627;SDS011;40525;55.926;21.066;2023-09-18T10:13:54;4.50;;;3.60;;
54627;SDS011;40525;55.926;21.066;2023-09-18T10:16:26;6.60;;;3.40;;
54627;SDS011;40525;55.926;21.066;2023-09-18T10:21:49;4.60;;;3.50;;
54627;SDS011;40525;55.926;21.066;2023-09-18T10:24:25;6.40;;;3.40;;
54627;SDS011;40525;55.926;21.066;2023-09-18T10:26:58;6.00;;;3.40;;
54627;SDS011;40525;55.926;21.066;2023-09-18T10:29:30;4.70;;;3.30;;
54627;SDS011;40525;55.926;21.066;2023-09-18T10:31:59;5.40;;;3.60;;
54627;SDS011;40525;55.926;21.066;2023-09-18T10:34:34;3.70;;;3.20;;
54627;SDS011;40525;55.926;21.066;2023-09-18T10:37:03;4.40;;;3.10;;
54627;SDS011;40525;55.926;21.066;2023-09-18T10:39:37;4.90;;;3.80;;
54627;SDS011;40525;55.926;21.066;2023-09-18T10:42:09;4.00;;;3.40;;
54627;SDS011;40525;55.926;21.066;2023-09-18T10:44:36;7.00;;;3.50;;
54627;SDS011;40525;55.926;21.066;2023-09-18T10:47:08;6.10;;;3.40;;
54627;SDS011;40525;55.926;21.066;2023-09-18T10:49:37;4.40;;;2.90;;
54627;SDS011;40525;55.926;21.066;2023-09-18T10:52:05;4.40;;;3.20;;
54627;SDS011;40525;55.926;21.066;2023-09-18T10:54:39;5.60;;;3.00;;
54627;SDS011;40525;55.926;21.066;2023-09-18T10:57:07;8.00;;;3.80;;
54627;SDS011;40525;55.926;21.066;2023-09-18T10:59:34;6.70;;;3.20;;
54627;SDS011;40525;55.926;21.066;2023-09-18T11:02:13;5.10;;;3.30;;
54627;SDS011;40525;55.926;21.066;2023-09-18T11:04:41;5.10;;;3.60;;
54627;SDS011;40525;55.926;21.066;2023-09-18T11:07:09;5.40;;;3.10;;
54627;SDS011;40525;55.926;21.066;2023-09-18T11:09:46;4.60;;;3.30;;
54627;SDS011;40525;55.926;21.066;2023-09-18T11:12:16;4.10;;;3.20;;
54627;SDS011;40525;55.926;21.066;2023-09-18T11:20:04;6.60;;;3.30;;
54627;SDS011;40525;55.926;21.066;2023-09-18T11:28:01;5.80;;;3.60;;
54627;SDS011;40525;55.926;21.066;2023-09-18T11:30:29;3.70;;;3.40;;
54627;SDS011;40525;55.926;21.066;2023-09-18T11:32:57;5.20;;;3.30;;
54627;SDS011;40525;55.926;21.066;2023-09-18T11:35:24;4.90;;;3.70;;
54627;SDS011;40525;55.926;21.066;2023-09-18T11:38:05;6.40;;;3.20;;
54627;SDS011;40525;55.926;21.066;2023-09-18T11:40:37;4.80;;;3.40;;
54627;SDS011;40525;55.926;21.066;2023-09-18T11:46:07;4.50;;;3.30;;
54627;SDS011;40525;55.926;21.066;2023-09-18T11:48:35;3.80;;;3.40;;
54627;SDS011;40525;55.926;21.066;2023-09-18T11:51:03;4.20;;;3.80;;
54627;SDS011;40525;55.926;21.066;2023-09-18T11:53:33;7.40;;;3.50;;
54627;SDS011;40525;55.926;21.066;2023-09-18T11:56:04;4.10;;;3.70;;
54627;SDS011;40525;55.926;21.066;2023-09-18T11:58:46;4.50;;;3.70;;
54627;SDS011;40525;55.926;21.066;2023-09-18T12:01:15;3.20;;;3.00;;
54627;SDS011;40525;55.926;21.066;2023-09-18T12:03:42;5.00;;;4.10;;
54627;SDS011;40525;55.926;21.066;2023-09-18T12:06:10;5.50;;;3.80;;
54627;SDS011;40525;55.926;21.066;2023-09-18T12:08:41;4.70;;;3.90;;
54627;SDS011;40525;55.926;21.066;2023-09-18T12:11:08;4.00;;;3.40;;
54627;SDS011;40525;55.926;21.066;2023-09-18T12:13:35;4.70;;;3.70;;
54627;SDS011;40525;55.926;21.066;2023-09-18T12:16:03;4.90;;;3.40;;
54627;SDS011;40525;55.926;21.066;2023-09-18T12:18:33;4.40;;;3.80;;
54627;SDS011;40525;55.926;21.066;2023-09-18T12:21:07;4.90;;;3.30;;
54627;SDS011;40525;55.926;21.066;2023-09-18T12:23:42;5.10;;;3.60;;
54627;SDS011;40525;55.926;21.066;2023-09-18T12:26:11;6.30;;;3.50;;
54627;SDS011;40525;55.926;21.066;2023-09-18T12:28:42;5.10;;;3.30;;
54627;SDS011;40525;55.926;21.066;2023-09-18T12:31:11;4.50;;;3.20;;
54627;SDS011;40525;55.926;21.066;2023-09-18T12:33:40;3.90;;;3.40;;
54627;SDS011;40525;55.926;21.066;2023-09-18T12:36:08;4.30;;;3.60;;
54627;SDS011;40525;55.926;21.066;2023-09-18T12:38:36;4.10;;;3.70;;
54627;SDS011;40525;55.926;21.066;2023-09-18T12:41:04;5.00;;;3.80;;
54627;SDS011;40525;55.926;21.066;2023-09-18T12:43:36;4.90;;;3.50;;
54627;SDS011;40525;55.926;21.066;2023-09-18T12:46:08;7.80;;;3.80;;
54627;SDS011;40525;55.926;21.066;2023-09-18T12:48:37;4.70;;;3.40;;
54627;SDS011;40525;55.926;21.066;2023-09-18T12:51:05;6.50;;;3.90;;
54627;SDS011;40525;55.926;21.066;2023-09-18T12:53:33;7.00;;;3.70;;
54627;SDS011;40525;55.926;21.066;2023-09-18T12:56:04;4.60;;;3.70;;
54627;SDS011;40525;55.926;21.066;2023-09-18T12:58:33;5.30;;;4.00;;
54627;SDS011;40525;55.926;21.066;2023-09-18T13:01:18;7.20;;;3.70;;
54627;SDS011;40525;55.926;21.066;2023-09-18T13:03:45;4.80;;;3.50;;
54627;SDS011;40525;55.926;21.066;2023-09-18T13:06:17;4.70;;;3.40;;
54627;SDS011;40525;55.926;21.066;2023-09-18T13:08:46;3.80;;;3.30;;
54627;SDS011;40525;55.926;21.066;2023-09-18T13:11:14;5.20;;;3.80;;
54627;SDS011;40525;55.926;21.066;2023-09-18T13:13:43;4.70;;;3.70;;
54627;SDS011;40525;55.926;21.066;2023-09-18T13:16:10;5.70;;;3.70;;
54627;SDS011;40525;55.926;21.066;2023-09-18T13:18:38;7.10;;;3.90;;
54627;SDS011;40525;55.926;21.066;2023-09-18T13:21:09;4.20;;;3.60;;
54627;SDS011;40525;55.926;21.066;2023-09-18T13:23:38;4.20;;;3.80;;
54627;SDS011;40525;55.926;21.066;2023-09-18T13:26:06;4.70;;;3.60;;
54627;SDS011;40525;55.926;21.066;2023-09-18T13:28:37;6.60;;;4.00;;
54627;SDS011;40525;55.926;21.066;2023-09-18T13:31:06;4.70;;;3.60;;
54627;SDS011;40525;55.926;21.066;2023-09-18T13:33:40;7.20;;;3.70;;
54627;SDS011;40525;55.926;21.066;2023-09-18T13:36:10;6.50;;;3.80;;
54627;SDS011;40525;55.926;21.066;2023-09-18T13:38:37;4.20;;;3.80;;
54627;SDS011;40525;55.926;21.066;2023-09-18T13:41:04;4.70;;;3.70;;
54627;SDS011;40525;55.926;21.066;2023-09-18T13:43:32;4.80;;;3.80;;
54627;SDS011;40525;55.926;21.066;2023-09-18T13:46:02;5.80;;;3.50;;
54627;SDS011;40525;55.926;21.066;2023-09-18T13:48:31;4.20;;;3.80;;
54627;SDS011;40525;55.926;21.066;2023-09-18T13:51:00;4.80;;;3.70;;
54627;SDS011;40525;55.926;21.066;2023-09-18T13:53:28;4.10;;;3.60;;
54627;SDS011;40525;55.926;21.066;2023-09-18T13:55:56;4.90;;;3.90;;
54627;SDS011;40525;55.926;21.066;2023-09-18T13:58:23;4.30;;;3.30;;
54627;SDS011;40525;55.926;21.066;2023-09-18T14:00:50;4.20;;;3.80;;
54627;SDS011;40525;55.926;21.066;2023-09-18T14:03:17;4.80;;;3.70;;
54627;SDS011;40525;55.926;21.066;2023-09-18T14:05:45;3.90;;;3.50;;
54627;SDS011;40525;55.926;21.066;2023-09-18T14:08:12;6.30;;;4.20;;
54627;SDS011;40525;55.926;21.066;2023-09-18T14:10:39;4.70;;;3.80;;
54627;SDS011;40525;55.926;21.066;2023-09-18T14:13:06;5.40;;;4.00;;
54627;SDS011;40525;55.926;21.066;2023-09-18T14:15:34;5.10;;;3.70;;
54627;SDS011;40525;55.926;21.066;2023-09-18T14:18:01;4.30;;;3.80;;
54627;SDS011;40525;55.926;21.066;2023-09-18T14:20:30;4.30;;;3.90;;
54627;SDS011;40525;55.926;21.066;2023-09-18T14:22:57;6.50;;;4.20;;
54627;SDS011;40525;55.926;21.066;2023-09-18T14:25:24;4.20;;;3.80;;
54627;SDS011;40525;55.926;21.066;2023-09-18T14:27:51;5.10;;;3.80;;
54627;SDS011;40525;55.926;21.066;2023-09-18T14:30:19;5.70;;;3.90;;
54627;SDS011;40525;55.926;21.066;2023-09-18T14:32:46;4.60;;;4.00;;
54627;SDS011;40525;55.926;21.066;2023-09-18T14:35:13;4.50;;;3.70;;
54627;SDS011;40525;55.926;21.066;2023-09-18T14:37:41;5.50;;;4.20;;
54627;SDS011;40525;55.926;21.066;2023-09-18T14:40:08;4.10;;;3.70;;
54627;SDS011;40525;55.926;21.066;2023-09-18T14:42:39;4.50;;;3.80;;
54627;SDS011;40525;55.926;21.066;2023-09-18T14:45:06;5.50;;;3.90;;
54627;SDS011;40525;55.926;21.066;2023-09-18T14:47:33;4.40;;;4.00;;
54627;SDS011;40525;55.926;21.066;2023-09-18T14:50:00;5.70;;;4.00;;
54627;SDS011;40525;55.926;21.066;2023-09-18T14:52:28;4.40;;;3.90;;
54627;SDS011;40525;55.926;21.066;2023-09-18T14:54:56;7.50;;;4.30;;
54627;SDS011;40525;55.926;21.066;2023-09-18T14:57:23;4.80;;;4.00;;
54627;SDS011;40525;55.926;21.066;2023-09-18T14:59:51;6.20;;;4.10;;
54627;SDS011;40525;55.926;21.066;2023-09-18T15:02:18;4.30;;;3.90;;
54627;SDS011;40525;55.926;21.066;2023-09-18T15:04:45;4.20;;;3.80;;
54627;SDS011;40525;55.926;21.066;2023-09-18T15:07:14;6.00;;;4.40;;